Tiempo atmosférico en la estación meteorológica de La Palma Aeropuerto, Santa Cruz de Tenerife (33 m.)



Fecha
DESCASC
Temp. máxima en grados centígrados (hora)
DESCASC
Temp. mínima en grados centígrados (hora)
DESCASC
Temp. media en grados centígrados
DESCASC
Racha de viento máxima en m/sg (hora)
DESCASC
Velocidad máxima media en intervalos de 10 minutos(hora)
DESCASC
Precipitaciones diarias en mm
DESCASC
Precipitaciones de 00:00 a 06:00 en mm
DESCASC
Precipitaciones de 06:00 a 12:00 en mm
DESCASC
Precipitaciones de 12:00 a 18:00 en mm
DESCASC
Precipitaciones de 18:00 a 24:00 en mm
DESCASC
16-01-2020 21.5 (12:30) 14.8 (05:00) 18.2 6.67 (00:40) 5 (01:50) -- 0 -- 0 0
15-01-2020 21.2 (13:00) 14.5 (04:40) 17.9 9.72 (14:20) 6.94 (15:00) 0 0 0 0 0
14-01-2020 22.1 (14:50) 15.5 (22:40) 18.8 11.67 (13:10) 8.89 (16:40) 0 0 0 0 0
13-01-2020 20.9 (14:00) 15.1 (23:00) 18 6.67 (05:20) 5.56 (07:30) 0 0 0 0 0
12-01-2020 20 (15:00) 15.4 (00:00) 17.7 9.72 (05:10) 7.78 (19:30) 0.2 0 0.2 0 0
11-01-2020 20.4 (14:00) 15.3 (00:00) 17.8 12.78 (21:40) 10.56 (21:40) 0.4 0.3 0 0 0.1
10-01-2020 20.7 (13:40) 16.5 (00:00) 18.6 13.33 (08:50) 9.44 (11:10) 2.8 2 0.6 0.2 0
09-01-2020 20.4 (13:50) 16.9 (00:00) 18.6 14.44 (11:20) 11.11 (11:00) 0 0 0 0 0
08-01-2020 20.4 (10:40) 16.7 (00:00) 18.6 11.39 (22:20) 8.06 (19:30) 0 0 0 0 0
07-01-2020 20.8 (14:50) 15.9 (00:00) 18.3 11.39 (23:10) 8.33 (23:10) 0.3 0 0.3 0 0
06-01-2020 20.1 (13:50) 15.6 (00:00) 17.9 18.89 (23:00) 15.83 (23:00) 1 0 0.5 0.1 0.4
05-01-2020 21.7 (13:00) 16.8 (00:00) 19.3 9.72 (17:30) 7.22 (17:20) 0 0 0 0 0
04-01-2020 20.7 (10:30) 15.9 (00:00) 18.3 9.17 (10:50) 6.11 (17:40) 0 0 0 0 0
03-01-2020 21.6 (11:40) 13.6 (00:00) 17.6 9.17 (18:20) 6.39 (22:30) 0 0 0 0 0
02-01-2020 21.2 (11:30) 15.4 (00:00) 18.3 10.83 (10:00) 8.89 (10:00) 0 0 0 0 0
01-01-2020 23 (11:20) 15.2 (00:00) 19.1 8.33 (05:00) 5.56 (05:30) 0 0 0 0 0
31-12-2019 21.5 (12:30) 16.7 (00:00) 19.1 7.22 (17:00) 5.28 (17:10) 0 0 0 0 0
30-12-2019 24 (12:10) 16.8 (00:00) 20.4 5 (15:50) 4.17 (16:00) 0 0 0 0 0
29-12-2019 29 (13:00) 16.6 (00:00) 22.8 12.5 (12:40) 9.17 (13:10) 0 0 0 0 0
28-12-2019 23.8 (23:40) 17.8 (00:00) 20.8 8.89 (19:20) 5 (23:20) 0 0 0 0 0
27-12-2019 22.9 (12:30) 16.3 (00:00) 19.6 4.72 (00:20) 3.89 (07:20) 0 0 0 0 0
26-12-2019 24.4 (14:40) 17.9 (00:00) 21.1 7.22 (08:00) 5.83 (08:00) 0 0 0 0 0
25-12-2019 23.3 (11:30) 17.9 (00:00) 20.6 11.67 (14:10) 9.17 (14:10) 0 0 0 0 0
24-12-2019 28.1 (13:10) 16.3 (02:10) 22.2 12.78 (15:30) 8.89 (16:00) 0 0 0 0 0
23-12-2019 22.7 (12:00) 16.9 (00:00) 19.8 7.78 (03:50) 5.83 (03:50) 0 0 0 0 0
22-12-2019 21.9 (11:30) 17.7 (05:10) 19.8 7.78 (01:40) 5.28 (12:20) 0 0 0 0 0
21-12-2019 22.1 (12:20) 15.9 (07:20) 19 6.11 (20:50) 3.89 (23:40) 0 0 0 0 0
20-12-2019 22.4 (11:50) 16.6 (00:00) 19.5 5.83 (19:20) 3.89 (00:40) 0 0 0 0 0
19-12-2019 22.2 (14:30) 15.9 (05:40) 19.1 6.11 (15:20) 5 (15:30) 0 0 0 0 0

Gráficas

Temp. máximas Temp. mínimas Temp. medias Precipitaciones Rachas de viento máximas Velocidades máximas media en intervalos de 10 minutos

Datos horarios

Fecha y hora oficial Temperatura (ºC) Velocidad del viento (km/h) Dirección del viento Racha (km/h) Dirección de racha Precipitación (mm) Presión (hPa) Tendencia (hPa) Humedad (%)
2020-01-17 23:00:00 16.3 13 Oeste 17 Oeste 0 1024.6 1.2 61
2020-01-17 22:00:00 16.2 13 Oeste 17 Oeste 0 1024.2 1.6 60
2020-01-17 21:00:00 16.7 9 Noroeste 13 Noroeste 0 1023.8 1.5 59
2020-01-17 20:00:00 16.4 9 Oeste 13 Oeste 0 1023.4 1.1 62
2020-01-17 19:00:00 16.9 8 Oeste 11 Oeste 0 1022.6 0.5 64
2020-01-17 18:00:00 19 3 Nordeste 8 Este 0 1022.3 -0.2 61
2020-01-17 17:00:00 19.5 4 Nordeste 8 Nordeste 0 1022.3 -0.9 58
2020-01-17 16:00:00 19.8 5 Este 11 Este 0 1022.1 -2.1 54
2020-01-17 15:00:00 19.9 6 Nordeste 13 Nordeste 0 1022.5 -2.7 54
2020-01-17 14:00:00 20.6 9 Nordeste 15 Norte 0 1023.2 -2.2 51
2020-01-17 13:00:00 20.4 9 Nordeste 15 Nordeste 0 1024.2 -0.6 57
2020-01-17 12:00:00 20.3 9 Nordeste 15 Nordeste 0 1025.2 0.9 56
2020-01-17 11:00:00 20.7 9 Norte 15 Norte 0 1025.4 1.5 53
2020-01-17 10:00:00 19.2 9 Norte 15 Norte 0 1024.8 1.4 55
2020-01-17 09:00:00 17.3 10 Oeste 17 Oeste 0 1024.3 1.5 30
2020-01-17 08:00:00 15.1 11 Oeste 18 Oeste 0 1023.9 1 31
2020-01-17 07:00:00 15.1 12 Oeste 22 Oeste 0 1023.4 0.5 37
2020-01-17 06:00:00 15.9 15 Oeste 21 Oeste 0 1022.8 0.3 41
2020-01-17 05:00:00 15.7 14 Oeste 21 Oeste 0 1022.9 0.2 33
2020-01-17 04:00:00 15.5 15 Oeste 21 Oeste 0 1022.9 -0.1 32
2020-01-17 03:00:00 15.8 16 Oeste 21 Oeste 0 1022.5 -0.9 33
2020-01-17 02:00:00 15.7 14 Oeste 18 Oeste 0 1022.7 -0.6 49
2020-01-17 01:00:00 15.7 14 Oeste 18 Oeste 0 1023 -0.2 40
2020-01-17 00:00:00 15.9 14 Oeste 18 Oeste 0 1023.4 0.5 41
2020-01-16 23:00:00 16.5 14 Oeste 21 Oeste 0 1023.3 1.1 53
2020-01-16 22:00:00 16.2 14 Oeste 17 Oeste 0 1023.2 1.5 61
2020-01-16 21:00:00 16 9 Oeste 13 Oeste 0 1022.9 1.7 64
2020-01-16 20:00:00 16.6 9 Oeste 13 Oeste 0 1022.2 1 63
2020-01-16 19:00:00 17.4 10 Oeste 15 Oeste 0 1021.7 0.9 63
2020-01-16 18:00:00 19.1 5 Este 8 Este 0 1021.2 0.4 58
2020-01-16 17:00:00 19.4 5 Nordeste 13 Este 0 1021.2 0 56
2020-01-16 16:00:00 19.9 6 Este 13 Este 0 1020.8 -0.8 56
2020-01-16 15:00:00 20.1 8 Este 13 Sudeste 0 1020.8 -1.4 54
2020-01-16 14:00:00 20.1 6 Este 13 Este 0 1021.2 -1.1 53
2020-01-16 13:00:00 21.1 10 Este 13 Sudeste 0 1021.6 -0.1 47
2020-01-16 12:00:00 20.4 6 Este 9 Este 0 1022.2 -- 41
2020-01-16 11:00:00 20.1 5 Nordeste 9 Este 0 1022.3 2.1 39
2020-01-16 10:00:00 20.1 4 Nordeste 13 Oeste -- 1021.7 2.4 34
2020-01-16 09:00:00 16.7 12 Oeste 21 Oeste 0 -- -- 29
2020-01-16 08:00:00 15.4 15 Oeste 21 Oeste 0 1020.2 1.7 33
2020-01-16 07:00:00 15.7 14 Oeste 18 Oeste 0 1019.3 0.5 33
2020-01-16 06:00:00 15.5 14 Sudoeste 21 Sudoeste 0 1018.4 -0.5 33
2020-01-16 05:00:00 15.2 12 Oeste 21 Sudoeste 0 1018.5 -0.1 36
2020-01-16 04:00:00 15.6 13 Oeste 21 Oeste 0 1018.8 -0.2 36
2020-01-16 03:00:00 15.8 14 Sudoeste 22 Sudoeste 0 1018.9 -0.4 41
2020-01-16 02:00:00 15.8 15 Oeste 22 Oeste 0 1018.6 -0.3 46
2020-01-16 01:00:00 16.6 15 Sudoeste 24 Sudoeste 0 1019 0.7 36
2020-01-16 00:00:00 17 15 Sudoeste 26 Sudoeste 0 1019.3 1.3 31
2020-01-15 23:00:00 17.5 15 Sudoeste 22 Sudoeste 0 1018.9 1.3 27
2020-01-15 22:00:00 16.4 13 Sudoeste 21 Sudoeste 0 1018.3 1.3 32
2020-01-15 21:00:00 17 16 Sudoeste 28 Sudoeste 0 1018 1.4 43
2020-01-15 20:00:00 16.8 13 Sudoeste 21 Oeste 0 1017.6 1.3 52
2020-01-15 19:00:00 18 12 Sudoeste 22 Sudoeste 0 1017 0.6 46
2020-01-15 18:00:00 19.4 17 Sur 30 Sur 0 1016.6 0 54
2020-01-15 17:00:00 20 20 Sudeste 33 Sudeste 0 1016.3 -0.4 53
2020-01-15 16:00:00 20.4 21 Sudeste 32 Sur 0 1016.4 -1 51
2020-01-15 15:00:00 20.7 25 Sudeste 35 Sur 0 1016.6 -1.4 55
2020-01-15 14:00:00 20.8 22 Sudeste 33 Sudeste 0 1016.7 -1.3 47
2020-01-15 13:00:00 20.9 18 Sudeste 26 Sudeste 0 1017.4 -0.3 41
2020-01-15 12:00:00 20.7 14 Sudeste 24 Sudeste 0 1018 0.9 44
2020-01-15 11:00:00 20.5 17 Sudeste 30 Sur 0 1018 1.1 40
2020-01-15 10:00:00 19.5 18 Sur 30 Sur 0 1017.7 1.4 45
2020-01-15 09:00:00 17.2 14 Sudoeste 22 Sur 0 1017.1 1.3 34
2020-01-15 08:00:00 15.5 14 Sudoeste 21 Sudoeste 0 1016.9 1 31
2020-01-15 07:00:00 15.4 12 Oeste 18 Oeste 0 1016.3 0.5 32
2020-01-15 06:00:00 15.2 13 Oeste 21 Sudoeste 0 1015.8 -0.2 35
2020-01-15 05:00:00 15.2 12 Sudoeste 21 Sur 0 1015.9 -0.1 33
2020-01-15 04:00:00 15.1 9 Oeste 21 Sudoeste 0 1015.8 -0.4 34
2020-01-15 03:00:00 15.2 13 Sudoeste 22 Sudoeste 0 1016 -0.4 35
2020-01-15 02:00:00 16.1 10 Sudoeste 22 Sudoeste 0 1016 -0.4 33
2020-01-15 01:00:00 16.9 13 Sudoeste 28 Sudoeste 0 1016.2 0.3 30
2020-01-15 00:00:00 16.1 12 Sudoeste 22 Sudoeste 0 1016.4 0.8 36
2020-01-14 23:00:00 15.8 11 Oeste 17 Oeste 0 1016.4 1.4 36
2020-01-14 22:00:00 17.1 8 Oeste 24 Sur 0 1015.9 1.5 27
2020-01-14 21:00:00 17.1 14 Sudoeste 24 Sur 0 1015.6 1.3 32
2020-01-14 20:00:00 17.4 15 Sudoeste 22 Sudoeste 0 1015 0.8 31
2020-01-14 19:00:00 18.5 13 Sur 28 Sur 0 1014.4 0.5 33
2020-01-14 18:00:00 19.6 22 Sur 42 Sur 0 1014.3 0.1 53
2020-01-14 17:00:00 20.5 31 Sur 42 Sur 0 1014.2 -0.5 55
2020-01-14 16:00:00 20.8 30 Sudeste 41 Sudeste 0 1013.9 -1.6 50
2020-01-14 15:00:00 21.5 31 Sur 42 Sur 0 1014.2 -2 47
2020-01-14 14:00:00 21.6 31 Sur 42 Sudeste 0 1014.7 -1.9 49
2020-01-14 13:00:00 21.7 27 Sur 39 Sudeste 0 1015.5 -0.3 50
2020-01-14 12:00:00 21.1 26 Sudeste 39 Sudeste 0 1016.2 0.9 58
2020-01-14 11:00:00 20.5 26 Sudeste 37 Sur 0 1016.6 1.5 62
2020-01-14 10:00:00 20.2 21 Sur 32 Sur 0 1015.8 1.2 61
2020-01-14 09:00:00 18.9 24 Sur 32 Sur 0 1015.3 1.2 52
2020-01-14 08:00:00 18.1 20 Sur 32 Sudoeste 0 1015.1 1.2 33
2020-01-14 07:00:00 18.7 20 Sudoeste 26 Sudoeste 0 1014.6 0.6 24
2020-01-14 06:00:00 17.5 12 Sudoeste 26 Sudoeste 0 1014.1 -0.3 27
2020-01-14 05:00:00 16.9 14 Sudoeste 21 Sudoeste 0 1013.9 -1.1 29
2020-01-14 04:00:00 16.5 13 Sudoeste 18 Sudoeste 0 1014 -1.3 30
2020-01-14 03:00:00 16.1 8 Sudoeste 17 Sudoeste 0 1014.4 -1.4 32
2020-01-14 02:00:00 16.5 13 Sudoeste 22 Sudoeste 0 1015 -1.2 32
2020-01-14 01:00:00 16.8 13 Sudoeste 24 Sudoeste 0 1015.3 -1.3 46
2020-01-14 00:00:00 17.3 15 Sudoeste 22 Sudoeste 0 1015.8 -0.6 49
2020-01-13 23:00:00 15.3 5 Oeste 13 Oeste 0 1016.2 -0.1 71
2020-01-13 22:00:00 16 12 Sudoeste 15 Sudoeste 0 1016.6 0.8 66
2020-01-13 21:00:00 16.4 9 Oeste 13 Oeste 0 1016.4 0.8 54
2020-01-13 20:00:00 16.4 10 Oeste 13 Oeste 0 1016.3 0.5 74
2020-01-13 19:00:00 17.1 10 Oeste 13 Oeste 0 1015.8 0 73
2020-01-13 18:00:00 18.8 6 Norte 13 Nordeste 0 1015.6 -0.5 71
2020-01-13 17:00:00 19.3 9 Norte 17 Nordeste 0 1015.8 -1 70
2020-01-13 16:00:00 20.1 11 Norte 18 Norte 0 1015.8 -2.1 67
2020-01-13 15:00:00 20.2 12 Norte 17 Norte 0 1016.1 -2.7 66
2020-01-13 14:00:00 20.6 12 Norte 17 Nordeste 0 1016.8 -2.3 63
2020-01-13 13:00:00 20.5 10 Norte 17 Nordeste 0 1017.9 -1.3 61
2020-01-13 12:00:00 19.9 9 Norte 18 Nordeste 0 1018.8 -0.1 62
2020-01-13 11:00:00 19.2 9 Norte 17 Noroeste 0 1019.1 0.5 64
2020-01-13 10:00:00 18.7 10 Noroeste 21 Oeste 0 1019.2 0.8 62
2020-01-13 09:00:00 16.8 15 Oeste 24 Oeste 0 1018.9 0.9 64
2020-01-13 08:00:00 16.2 18 Oeste 24 Oeste 0 1018.6 0.8 65
2020-01-13 07:00:00 15.9 18 Oeste 24 Oeste 0 1018.4 0.5 65
2020-01-13 06:00:00 16.1 15 Oeste 24 Oeste 0 1018 -0.4 65
2020-01-13 05:00:00 15.8 18 Oeste 22 Oeste 0 1017.8 -0.8 64
2020-01-13 04:00:00 15.8 14 Oeste 17 Oeste 0 1017.9 -1 65
2020-01-13 03:00:00 16.1 11 Oeste 18 Oeste 0 1018.4 -1.2 65
2020-01-13 02:00:00 16.5 13 Oeste 17 Oeste 0 1018.6 -1.1 66
2020-01-13 01:00:00 17.3 13 Oeste 18 Noroeste 0 1018.9 -0.7 63
2020-01-13 00:00:00 17.7 9 Noroeste 30 Nordeste 0 1019.6 -0.1 63
2020-01-12 23:00:00 18.2 18 Nordeste 28 Nordeste 0 1019.7 0.1 67
2020-01-12 22:00:00 17.8 13 Norte 21 Norte 0 1019.6 0.1 73
2020-01-12 21:00:00 17.3 13 Oeste 22 Noroeste 0 1019.7 0.1 76
2020-01-12 20:00:00 17.9 17 Norte 33 Nordeste 0 1019.6 0.6 76
2020-01-12 19:00:00 18.6 16 Norte 24 Norte 0 1019.5 0.7 64
2020-01-12 18:00:00 18.7 14 Norte 26 Nordeste 0 1019.6 0.4 65
2020-01-12 17:00:00 18.8 20 Nordeste 26 Nordeste 0 1019 -1 66
2020-01-12 16:00:00 19.1 14 Norte 21 Norte 0 1018.8 -1.9 64
2020-01-12 15:00:00 19.8 10 Norte 17 Noroeste 0 1019.2 -2.4 56
2020-01-12 14:00:00 19.5 7 Norte 18 Nordeste 0 1020 -1.8 54
2020-01-12 13:00:00 19.2 11 Nordeste 28 Nordeste 0 1020.7 -0.9 57
2020-01-12 12:00:00 18.7 17 Nordeste 26 Nordeste 0 1021.6 0.5 62
2020-01-12 11:00:00 18.3 13 Norte 26 Nordeste 0 1021.8 1.2 71
2020-01-12 10:00:00 18.2 22 Norte 30 Nordeste 0 1021.6 1.4 70
2020-01-12 09:00:00 17.9 19 Norte 26 Norte 0 1021.1 1.5 69
2020-01-12 08:00:00 17.4 15 Noroeste 24 Norte 0 1020.6 0.7 73
2020-01-12 07:00:00 16.9 17 Noroeste 32 Noroeste 0.2 1020.2 -0.1 74
2020-01-12 06:00:00 16.3 12 Noroeste 35 Nordeste 0 1019.6 -1.2 77
2020-01-12 05:00:00 17.4 17 Noroeste 28 Noroeste 0 1019.9 -1.3 67
2020-01-12 04:00:00 17.2 19 Norte 32 Noroeste 0 1020.3 -1.3 72
2020-01-12 03:00:00 16.7 18 Oeste 24 Oeste 0 1020.8 -1.3 67
2020-01-12 02:00:00 16.1 12 Oeste 30 Nordeste 0 1021.2 -1.1 78
2020-01-12 01:00:00 17.1 22 Nordeste 33 Nordeste 0 1021.6 -0.4 80
2020-01-12 00:00:00 15.4 18 Oeste 35 Norte 0.1 1022.1 0.4 84
2020-01-11 23:00:00 17.5 25 Nordeste 42 Nordeste 0 1022.3 1.1 73
2020-01-11 22:00:00 17.4 34 Norte 46 Nordeste 0 1022 0.9 74
2020-01-11 21:00:00 17.6 30 Norte 45 Nordeste 0 1021.7 1.1 73
2020-01-11 20:00:00 18 24 Norte 41 Norte 0 1021.2 0.8 70
2020-01-11 19:00:00 18.2 29 Norte 37 Norte 0 1021.1 0.7 73
2020-01-11 18:00:00 18.5 32 Norte 39 Norte 0 1020.6 -0.2 72
2020-01-11 17:00:00 18.9 27 Norte 35 Norte 0 1020.4 -1 69
2020-01-11 16:00:00 19 18 Noroeste 32 Norte 0 1020.4 -1.9 63
2020-01-11 15:00:00 19 18 Norte 32 Norte 0 1020.8 -2.5 64
2020-01-11 14:00:00 20.1 22 Norte 37 Nordeste 0 1021.4 -2.2 61
2020-01-11 13:00:00 19 28 Norte 35 Norte 0 1022.3 -1.1 65
2020-01-11 12:00:00 17.9 20 Nordeste 35 Nordeste 0 1023.3 0.6 77
2020-01-11 11:00:00 18.8 20 Norte 30 Norte 0 1023.6 1.3 62
2020-01-11 10:00:00 18.2 18 Noroeste 28 Noroeste 0 1023.4 1.5 60
2020-01-11 09:00:00 17.4 18 Oeste 30 Noroeste 0 1022.7 1.1 62
2020-01-11 08:00:00 17.4 18 Noroeste 26 Noroeste 0 1022.3 0.3 64
2020-01-11 07:00:00 17.1 17 Noroeste 24 Oeste 0 1021.9 -0.4 66
2020-01-11 06:00:00 17.5 19 Noroeste 33 Norte 0 1021.6 -1 66
2020-01-11 05:00:00 17.7 18 Noroeste 35 Noroeste 0 1022 -0.6 70
2020-01-11 04:00:00 17.8 19 Noroeste 28 Noroeste 0 1022.3 -0.8 73
2020-01-11 03:00:00 17 24 Noroeste 33 Noroeste 0.3 1022.6 -1 89
2020-01-11 02:00:00 17 15 Oeste 26 Oeste 0 1022.6 -1.2 86
2020-01-11 01:00:00 16.9 19 Oeste 30 Oeste 0 1023.1 -0.6 85
2020-01-11 00:00:00 17.7 15 Norte 32 Nordeste 0 1023.6 -0.3 87
2020-01-10 23:00:00 18.5 16 Norte 30 Nordeste 0 1023.8 0.3 77
2020-01-10 22:00:00 18.2 14 Oeste 21 Oeste 0 1023.7 0.2 66
2020-01-10 21:00:00 18.4 12 Noroeste 18 Noroeste 0 1023.9 0.7 65
2020-01-10 20:00:00 18.5 13 Noroeste 24 Noroeste 0 1023.5 0.5 59
2020-01-10 19:00:00 18.8 19 Noroeste 28 Noroeste 0 1023.5 0.5 66
2020-01-10 18:00:00 19 19 Norte 30 Norte 0 1023.2 0.2 78
2020-01-10 17:00:00 19.1 18 Norte 35 Norte 0 1023 -0.7 78
2020-01-10 16:00:00 18.2 11 Norte 18 Nordeste 0.1 1023 -1.4 88
2020-01-10 15:00:00 17.9 8 Noroeste 30 Nordeste 0.1 1023 -2.1 90
2020-01-10 14:00:00 19 22 Norte 32 Norte 0 1023.7 -2 82
2020-01-10 13:00:00 19.4 15 Norte 32 Noroeste 0 1024.4 -0.8 74
2020-01-10 12:00:00 18.9 19 Noroeste 42 Nordeste 0 1025.1 0.6 72
2020-01-10 11:00:00 18.8 32 Norte 46 Norte 0.3 1025.7 1.7 82
2020-01-10 10:00:00 18.5 20 Norte 39 Norte 0.3 1025.2 1.6 82
2020-01-10 09:00:00 18 30 Nordeste 48 Nordeste 0 1024.5 1 83
2020-01-10 08:00:00 18.1 19 Noroeste 32 Norte 0 1024 0.2 75
2020-01-10 07:00:00 17.9 20 Noroeste 30 Noroeste 0 1023.6 -0.8 80
2020-01-10 06:00:00 16.6 14 Oeste 37 Nordeste 2 1023.5 -0.9 91
2020-01-10 05:00:00 18.3 13 Norte 30 Norte 0 1023.8 -0.7 73
2020-01-10 04:00:00 18.3 17 Norte 35 Nordeste 0 1024.4 -0.2 72
2020-01-10 03:00:00 18.4 17 Norte 32 Norte 0 1024.4 -0.8 71
2020-01-10 02:00:00 17.4 18 Norte 41 Norte 0 1024.5 -1.1 85
2020-01-10 01:00:00 19.1 17 Noroeste 35 Norte 0 1024.6 -0.9 59
2020-01-10 00:00:00 18.8 18 Noroeste 30 Noroeste 0 1025.2 -0.2 59
2020-01-09 23:00:00 18.4 26 Norte 35 Norte 0 1025.6 0.4 77
2020-01-09 22:00:00 18.8 25 Norte 33 Norte 0 1025.5 0.9 70
2020-01-09 21:00:00 18.9 22 Norte 33 Norte 0 1025.4 1.2 61
2020-01-09 20:00:00 19 23 Noroeste 37 Norte 0 1025.2 1 53
2020-01-09 19:00:00 18.7 27 Noroeste 39 Noroeste 0 1024.6 0.8 56
2020-01-09 18:00:00 18.6 22 Norte 42 Norte 0 1024.2 0.4 63
2020-01-09 17:00:00 19.1 33 Norte 41 Norte 0 1024.2 -0.1 67
2020-01-09 16:00:00 19.9 28 Norte 37 Norte 0 1023.8 -1.2 64
2020-01-09 15:00:00 20 26 Norte 33 Norte 0 1023.8 -2.1 64
2020-01-09 14:00:00 19.7 29 Norte 39 Norte 0 1024.3 -1.7 65
2020-01-09 13:00:00 19.8 31 Norte 42 Norte 0 1025 -0.5 66
2020-01-09 12:00:00 19.4 17 Norte 52 Nordeste 0 1025.9 1.2 65
2020-01-09 11:00:00 18.5 40 Nordeste 50 Nordeste 0 1026 2.3 73
2020-01-09 10:00:00 18.4 27 Norte 39 Norte 0 1025.5 2 71
2020-01-09 09:00:00 17.6 21 Norte 35 Norte 0 1024.7 1.6 75
2020-01-09 08:00:00 17.4 14 Noroeste 28 Noroeste 0 1023.7 0.4 65
2020-01-09 07:00:00 17.4 19 Noroeste 37 Norte 0 1023.5 -0.1 73
2020-01-09 06:00:00 17.6 15 Noroeste 37 Norte 0 1023.1 -0.4 67
2020-01-09 05:00:00 18.4 31 Norte 41 Norte 0 1023.3 -0.4 72
2020-01-09 04:00:00 18.6 29 Norte 41 Norte 0 1023.6 -0.4 68
2020-01-09 03:00:00 18.4 27 Norte 42 Norte 0 1023.5 -0.7 67
2020-01-09 02:00:00 18.6 26 Norte 41 Norte 0 1023.7 -0.6 70
2020-01-09 01:00:00 18.1 18 Noroeste 33 Norte 0 1024 -0.4 65
2020-01-09 00:00:00 18.3 22 Norte 33 Norte 0 1024.2 0.1 65
2020-01-08 23:00:00 17.8 19 Noroeste 41 Norte 0 1024.3 0.4 70
2020-01-08 22:00:00 18.5 23 Norte 32 Norte 0 1024.4 0.9 66
2020-01-08 21:00:00 18.4 22 Norte 32 Norte 0 1024.1 0.7 67
2020-01-08 20:00:00 18.5 24 Norte 39 Norte 0 1023.9 0.7 67
2020-01-08 19:00:00 18.6 22 Norte 32 Norte 0 1023.5 0.7 68
2020-01-08 18:00:00 18.9 23 Norte 35 Nordeste 0 1023.4 0.7 65
2020-01-08 17:00:00 19.3 22 Norte 30 Nordeste 0 1023.2 0.3 65
2020-01-08 16:00:00 19.4 21 Norte 32 Norte 0 1022.8 -0.9 61
2020-01-08 15:00:00 19.8 20 Norte 28 Nordeste 0 1022.7 -1.8 58
2020-01-08 14:00:00 19.6 22 Nordeste 30 Nordeste 0 1022.9 -1.8 62
2020-01-08 13:00:00 19.6 23 Nordeste 30 Nordeste 0 1023.7 -0.5 65
2020-01-08 12:00:00 20.1 23 Nordeste 32 Nordeste 0 1024.5 1.1 60
2020-01-08 11:00:00 19.9 24 Nordeste 35 Nordeste 0 1024.7 1.8 62
2020-01-08 10:00:00 19.7 27 Nordeste 37 Nordeste 0 1024.2 1.9 66
2020-01-08 09:00:00 17.8 12 Noroeste 30 Norte 0 1023.4 1.1 66
2020-01-08 08:00:00 18.1 26 Norte 35 Norte 0 1022.9 0.7 68
2020-01-08 07:00:00 16.9 13 Noroeste 22 Oeste 0 1022.3 -0.2 63
2020-01-08 06:00:00 17.8 16 Noroeste 24 Noroeste 0 1022.3 -0.3 61
2020-01-08 05:00:00 17.6 18 Noroeste 28 Noroeste 0 1022.2 -0.5 62
2020-01-08 04:00:00 17.8 21 Noroeste 26 Noroeste 0 1022.5 -0.2 64
2020-01-08 03:00:00 17.7 14 Noroeste 30 Noroeste 0 1022.6 -0.5 64
2020-01-08 02:00:00 18 15 Norte 33 Norte 0 1022.7 -0.8 67
2020-01-08 01:00:00 18.5 28 Norte 33 Norte 0 1022.7 -0.6 71
2020-01-08 00:00:00 18.6 26 Nordeste 41 Nordeste 0 1023.1 0.1 71
2020-01-07 23:00:00 18.9 23 Nordeste 32 Norte 0 1023.5 0.9 71
2020-01-07 22:00:00 18.8 22 Nordeste 28 Nordeste 0 1023.3 1.2 70
2020-01-07 21:00:00 18.3 15 Noroeste 28 Norte 0 1023 1.3 63
2020-01-07 20:00:00 18.9 18 Nordeste 28 Nordeste 0 1022.6 1.2 65
2020-01-07 19:00:00 18.8 22 Nordeste 30 Nordeste 0 1022.1 0.9 63
2020-01-07 18:00:00 18.9 20 Nordeste 30 Nordeste 0 1021.7 0.6 65
2020-01-07 17:00:00 19.2 18 Nordeste 28 Norte 0 1021.4 -0.2 65
2020-01-07 16:00:00 19.5 18 Norte 28 Nordeste 0 1021.2 -1 61
2020-01-07 15:00:00 20 21 Norte 28 Norte 0 1021.1 -1.9 58
2020-01-07 14:00:00 20.1 21 Norte 30 Nordeste 0 1021.6 -1.7 57
2020-01-07 13:00:00 20.2 22 Norte 32 Nordeste 0 1022.2 -0.7 62
2020-01-07 12:00:00 19.4 26 Nordeste 39 Nordeste 0 1023 0.8 65
2020-01-07 11:00:00 19.3 29 Norte 37 Norte 0 1023.3 2 66
2020-01-07 10:00:00 18 17 Norte 32 Norte 0 1022.9 2.1 62
2020-01-07 09:00:00 17.9 19 Norte 30 Norte 0 1022.2 1.8 64
2020-01-07 08:00:00 16.9 16 Noroeste 33 Noroeste 0 1021.3 1.2 67
2020-01-07 07:00:00 16.3 15 Oeste 39 Nordeste 0.3 1020.8 0.5 80
2020-01-07 06:00:00 17.8 24 Norte 35 Nordeste 0 1020.4 0 71
2020-01-07 05:00:00 17.7 25 Norte 39 Norte 0 1020.1 -0.7 67
2020-01-07 04:00:00 17.8 22 Norte 37 Norte 0 1020.3 -1.1 66
2020-01-07 03:00:00 17.5 21 Noroeste 32 Noroeste 0 1020.4 -1.2 63
2020-01-07 02:00:00 17.8 21 Noroeste 32 Noroeste 0 1020.8 -1.3 59
2020-01-07 01:00:00 17.6 25 Noroeste 39 Noroeste 0 1021.4 -0.5 61
2020-01-07 00:00:00 17.5 30 Noroeste 59 Norte 0.4 1021.6 -0.2 68
2020-01-06 23:00:00 18.5 57 Norte 68 Norte 0 1022.1 0.8 66
2020-01-06 22:00:00 17.7 17 Noroeste 37 Norte 0 1021.9 1 60
2020-01-06 21:00:00 18.2 29 Norte 46 Norte 0 1021.8 1 66
2020-01-06 20:00:00 18.4 32 Norte 42 Norte 0 1021.3 0.4 71
2020-01-06 19:00:00 18.4 27 Norte 46 Norte 0 1020.9 -0.1 69
2020-01-06 18:00:00 18.4 29 Norte 42 Norte 0 1020.8 -0.2 74
2020-01-06 17:00:00 18.4 27 Norte 41 Norte 0.1 1020.9 -0.5 68
2020-01-06 16:00:00 17.7 39 Norte 50 Norte 0 1021 -1.2 86
2020-01-06 15:00:00 18 17 Noroeste 39 Norte 0 1021 -2.1 74
2020-01-06 14:00:00 19.7 16 Norte 26 Norte 0 1021.4 -2.5 65
2020-01-06 13:00:00 17.7 17 Noroeste 33 Norte 0 1022.2 -1.6 79
2020-01-06 12:00:00 18.8 11 Norte 21 Norte 0 1023.1 0.4 73
2020-01-06 11:00:00 18.1 14 Norte 22 Norte 0 1023.9 1.8 76
2020-01-06 10:00:00 16.3 19 Nordeste 41 Nordeste 0.5 1023.8 1.7 90
2020-01-06 09:00:00 17.5 20 Norte 41 Nordeste 0 1022.7 0.5 81